PWSweather.com
Personal Weather Stations
Station Observations
KCAPORTE1
Orchard Ridge, Porterville, CA 93257

Orchard RidgePorterville, CA 93257

Lat: 36.088946, Lon: -119.057632

Elevation: 423

Station Type: Davis Vantage Vue

http://weather.manyjourneys.com/

Latest ConditionsUpdated 7:00:00 PM PDT Thursday, Jul 28, 2016
Currently Today's Max Today's Min Today's Average
Temperature 104.7°F40.4°C 108.1°F42.3°C 73.2°F22.9°C 88.2°F31.2°C
Dew Point 51.1°F10.6°C 66.5°F19.2°C 48.9°F9.4°C 57.2°F14.0°C
Winds Calm Calm 3.5 mph NNE5.6 kmh NNE - 0.4 mph 0.6 kmh
Wind Gusts 2.3 mph3.7 kmh 5.8 mph9.3 kmh - -
Humidity 17% 64% 15% 40%
Pressure 29.69 in1005.4 mb 29.82 in1009.8 mb 29.68 in1005.1 mb -
Hour Temp Dew Point Humidity Winds Wind Gusts Pressure Precip Precip Rate Daily Precip Total
07:00 PM 104.7°F40.4°C 51.1°F10.6°C 17% Calm Calm 2.3 mph3.7 kmh 29.69 in1005.4 mb - 0.00 in0.0 mm 0.00 in0.0 mm
06:55 PM 105.3°F40.7°C 51.6°F10.9°C 17% 1.2 mph NNW1.9 kmh NNW 2.3 mph3.7 kmh 29.69 in1005.4 mb - 0.00 in0.0 mm 0.00 in0.0 mm
06:50 PM 105.5°F40.8°C 51.8°F11.0°C 17% 1.2 mph NW1.9 kmh NW 2.3 mph3.7 kmh 29.69 in1005.4 mb - 0.00 in0.0 mm 0.00 in0.0 mm
06:45 PM 105.7°F40.9°C 50.3°F10.2°C 16% Calm Calm 1.2 mph1.9 kmh 29.69 in1005.4 mb - 0.00 in0.0 mm 0.00 in0.0 mm
06:40 PM 106.4°F41.3°C 50.9°F10.5°C 16% 1.2 mph NNW1.9 kmh NNW 2.3 mph3.7 kmh 29.69 in1005.4 mb - 0.00 in0.0 mm 0.00 in0.0 mm
06:35 PM 106.7°F41.5°C 52.7°F11.5°C 17% Calm Calm 1.2 mph1.9 kmh 29.68 in1005.1 mb - 0.00 in0.0 mm 0.00 in0.0 mm
06:30 PM 106.3°F41.3°C 52.4°F11.3°C 17% Calm Calm 3.5 mph5.6 kmh 29.69 in1005.4 mb - 0.00 in0.0 mm 0.00 in0.0 mm
06:25 PM 106.2°F41.2°C 48.9°F9.4°C 15% 1.2 mph N1.9 kmh N 2.3 mph3.7 kmh 29.68 in1005.1 mb - 0.00 in0.0 mm 0.00 in0.0 mm
06:20 PM 106.9°F41.6°C 49.5°F9.7°C 15% 1.2 mph N1.9 kmh N 2.3 mph3.7 kmh 29.69 in1005.4 mb - 0.00 in0.0 mm 0.00 in0.0 mm
06:15 PM 107.0°F41.7°C 49.6°F9.8°C 15% 1.2 mph SW1.9 kmh SW 3.5 mph5.6 kmh 29.69 in1005.4 mb - 0.00 in0.0 mm 0.00 in0.0 mm
06:10 PM 107.1°F41.7°C 51.4°F10.8°C 16% 1.2 mph NW1.9 kmh NW 3.5 mph5.6 kmh 29.69 in1005.4 mb - 0.00 in0.0 mm 0.00 in0.0 mm
06:05 PM 107.4°F41.9°C 53.3°F11.8°C 17% Calm Calm 2.3 mph3.7 kmh 29.70 in1005.8 mb - 0.00 in0.0 mm 0.00 in0.0 mm
06:00 PM 107.7°F42.1°C 51.9°F11.1°C 16% 2.3 mph 3.7 kmh 3.5 mph5.6 kmh 29.70 in1005.8 mb - 0.00 in0.0 mm 0.00 in0.0 mm
05:55 PM 107.9°F42.2°C 53.7°F12.1°C 17% 1.2 mph NW1.9 kmh NW 1.2 mph1.9 kmh 29.70 in1005.8 mb - 0.00 in0.0 mm 0.00 in0.0 mm
05:50 PM 107.6°F42.0°C 51.8°F11.0°C 16% Calm Calm 1.2 mph1.9 kmh 29.70 in1005.8 mb - 0.00 in0.0 mm 0.00 in0.0 mm
05:45 PM 107.9°F42.2°C 52.1°F11.2°C 16% 2.3 mph N3.7 kmh N 3.5 mph5.6 kmh 29.70 in1005.8 mb - 0.00 in0.0 mm 0.00 in0.0 mm
05:40 PM 108.1°F42.3°C 53.9°F12.2°C 17% 1.2 mph NNW1.9 kmh NNW 2.3 mph3.7 kmh 29.70 in1005.8 mb - 0.00 in0.0 mm 0.00 in0.0 mm
05:35 PM 107.9°F42.2°C 53.7°F12.1°C 17% 1.2 mph N1.9 kmh N 1.2 mph1.9 kmh 29.70 in1005.8 mb - 0.00 in0.0 mm 0.00 in0.0 mm
05:30 PM 107.7°F42.1°C 53.6°F12.0°C 17% Calm Calm 2.3 mph3.7 kmh 29.70 in1005.8 mb - 0.00 in0.0 mm 0.00 in0.0 mm
05:25 PM 107.5°F41.9°C 53.4°F11.9°C 17% 1.2 mph S1.9 kmh S 2.3 mph3.7 kmh 29.70 in1005.8 mb - 0.00 in0.0 mm 0.00 in0.0 mm
05:20 PM 107.2°F41.8°C 54.7°F12.6°C 18% 1.2 mph ESE1.9 kmh ESE 2.3 mph3.7 kmh 29.70 in1005.8 mb - 0.00 in0.0 mm 0.00 in0.0 mm
05:15 PM 107.3°F41.8°C 53.2°F11.8°C 17% 1.2 mph NNW1.9 kmh NNW 3.5 mph5.6 kmh 29.71 in1006.1 mb - 0.00 in0.0 mm 0.00 in0.0 mm
05:10 PM 106.7°F41.5°C 52.8°F11.6°C 17% 1.2 mph W1.9 kmh W 2.3 mph3.7 kmh 29.71 in1006.1 mb - 0.00 in0.0 mm 0.00 in0.0 mm
05:05 PM 106.8°F41.6°C 55.9°F13.3°C 19% 1.2 mph N1.9 kmh N 3.5 mph5.6 kmh 29.71 in1006.1 mb - 0.00 in0.0 mm 0.00 in0.0 mm
05:00 PM 107.1°F41.7°C 54.6°F12.6°C 18% 1.2 mph NE1.9 kmh NE 2.3 mph3.7 kmh 29.71 in1006.1 mb - 0.00 in0.0 mm 0.00 in0.0 mm
04:55 PM 107.7°F42.1°C 55.1°F12.8°C 18% 1.2 mph NNW1.9 kmh NNW 3.5 mph5.6 kmh 29.71 in1006.1 mb - 0.00 in0.0 mm 0.00 in0.0 mm
04:50 PM 107.6°F42.0°C 53.5°F11.9°C 17% 1.2 mph WSW1.9 kmh WSW 2.3 mph3.7 kmh 29.71 in1006.1 mb - 0.00 in0.0 mm 0.00 in0.0 mm
04:45 PM 107.5°F41.9°C 57.9°F14.4°C 20% 1.2 mph NW1.9 kmh NW 2.3 mph3.7 kmh 29.71 in1006.1 mb - 0.00 in0.0 mm 0.00 in0.0 mm
04:40 PM 107.6°F42.0°C 56.5°F13.6°C 19% 1.2 mph SE1.9 kmh SE 1.2 mph1.9 kmh 29.71 in1006.1 mb - 0.00 in0.0 mm 0.00 in0.0 mm
04:35 PM 107.7°F42.1°C 56.6°F13.7°C 19% 1.2 mph N1.9 kmh N 5.8 mph9.3 kmh 29.71 in1006.1 mb - 0.00 in0.0 mm 0.00 in0.0 mm
04:30 PM 108.1°F42.3°C 56.9°F13.8°C 19% 1.2 mph N1.9 kmh N 3.5 mph5.6 kmh 29.72 in1006.4 mb - 0.00 in0.0 mm 0.00 in0.0 mm
04:25 PM 107.9°F42.2°C 55.3°F12.9°C 18% Calm Calm 1.2 mph1.9 kmh 29.72 in1006.4 mb - 0.00 in0.0 mm 0.00 in0.0 mm
04:20 PM 108.0°F42.2°C 55.4°F13.0°C 18% 1.2 mph ESE1.9 kmh ESE 2.3 mph3.7 kmh 29.72 in1006.4 mb - 0.00 in0.0 mm 0.00 in0.0 mm
04:15 PM 107.9°F42.2°C 55.3°F12.9°C 18% 1.2 mph WNW1.9 kmh WNW 2.3 mph3.7 kmh 29.72 in1006.4 mb - 0.00 in0.0 mm 0.00 in0.0 mm
04:10 PM 107.5°F41.9°C 54.9°F12.7°C 18% 1.2 mph SE1.9 kmh SE 1.2 mph1.9 kmh 29.72 in1006.4 mb - 0.00 in0.0 mm 0.00 in0.0 mm
04:05 PM 107.3°F41.8°C 54.8°F12.7°C 18% 1.2 mph S1.9 kmh S 2.3 mph3.7 kmh 29.72 in1006.4 mb - 0.00 in0.0 mm 0.00 in0.0 mm
04:00 PM 107.2°F41.8°C 53.2°F11.8°C 17% 1.2 mph N1.9 kmh N 1.2 mph1.9 kmh 29.73 in1006.8 mb - 0.00 in0.0 mm 0.00 in0.0 mm
03:55 PM 107.4°F41.9°C 53.3°F11.8°C 17% 2.3 mph NNE3.7 kmh NNE 3.5 mph5.6 kmh 29.73 in1006.8 mb - 0.00 in0.0 mm 0.00 in0.0 mm
03:50 PM 107.3°F41.8°C 53.2°F11.8°C 17% 1.2 mph SW1.9 kmh SW 2.3 mph3.7 kmh 29.73 in1006.8 mb - 0.00 in0.0 mm 0.00 in0.0 mm
03:45 PM 106.8°F41.6°C 52.8°F11.6°C 17% Calm Calm 2.3 mph3.7 kmh 29.73 in1006.8 mb - 0.00 in0.0 mm 0.00 in0.0 mm
03:40 PM 106.8°F41.6°C 52.8°F11.6°C 17% 1.2 mph ENE1.9 kmh ENE 1.2 mph1.9 kmh 29.73 in1006.8 mb - 0.00 in0.0 mm 0.00 in0.0 mm
03:35 PM 107.3°F41.8°C 51.5°F10.8°C 16% 1.2 mph S1.9 kmh S 2.3 mph3.7 kmh 29.73 in1006.8 mb - 0.00 in0.0 mm 0.00 in0.0 mm
03:30 PM 107.2°F41.8°C 49.7°F9.8°C 15% Calm Calm 1.2 mph1.9 kmh 29.73 in1006.8 mb - 0.00 in0.0 mm 0.00 in0.0 mm
03:25 PM 107.0°F41.7°C 51.3°F10.7°C 16% 1.2 mph S1.9 kmh S 1.2 mph1.9 kmh 29.74 in1007.1 mb - 0.00 in0.0 mm 0.00 in0.0 mm
03:20 PM 106.8°F41.6°C 52.9°F11.6°C 17% 1.2 mph W1.9 kmh W 2.3 mph3.7 kmh 29.74 in1007.1 mb - 0.00 in0.0 mm 0.00 in0.0 mm
03:15 PM 106.4°F41.3°C 52.5°F11.4°C 17% 1.2 mph SW1.9 kmh SW 1.2 mph1.9 kmh 29.74 in1007.1 mb - 0.00 in0.0 mm 0.00 in0.0 mm
03:10 PM 106.0°F41.1°C 52.2°F11.2°C 17% Calm Calm 2.3 mph3.7 kmh 29.74 in1007.1 mb - 0.00 in0.0 mm 0.00 in0.0 mm
03:05 PM 105.5°F40.8°C 53.3°F11.8°C 18% 1.2 mph NNW1.9 kmh NNW 2.3 mph3.7 kmh 29.75 in1007.5 mb - 0.00 in0.0 mm 0.00 in0.0 mm
03:00 PM 105.4°F40.8°C 53.3°F11.8°C 18% 2.3 mph N3.7 kmh N 3.5 mph5.6 kmh 29.75 in1007.5 mb - 0.00 in0.0 mm 0.00 in0.0 mm
02:55 PM 105.1°F40.6°C 49.9°F9.9°C 16% 1.2 mph N1.9 kmh N 2.3 mph3.7 kmh 29.75 in1007.5 mb - 0.00 in0.0 mm 0.00 in0.0 mm
02:50 PM 105.2°F40.7°C 51.6°F10.9°C 17% 2.3 mph W3.7 kmh W 3.5 mph5.6 kmh 29.75 in1007.5 mb - 0.00 in0.0 mm 0.00 in0.0 mm
02:45 PM 105.4°F40.8°C 50.0°F10.0°C 16% 3.5 mph NNE5.6 kmh NNE 5.8 mph9.3 kmh 29.76 in1007.8 mb - 0.00 in0.0 mm 0.00 in0.0 mm
02:40 PM 105.0°F40.6°C 51.4°F10.8°C 17% 1.2 mph SSW1.9 kmh SSW 2.3 mph3.7 kmh 29.76 in1007.8 mb - 0.00 in0.0 mm 0.00 in0.0 mm
02:35 PM 104.8°F40.4°C 54.3°F12.4°C 19% 1.2 mph NW1.9 kmh NW 3.5 mph5.6 kmh 29.76 in1007.8 mb - 0.00 in0.0 mm 0.00 in0.0 mm
02:30 PM 104.6°F40.3°C 56.8°F13.8°C 21% 1.2 mph W1.9 kmh W 3.5 mph5.6 kmh 29.76 in1007.8 mb - 0.00 in0.0 mm 0.00 in0.0 mm
02:25 PM 104.5°F40.3°C 58.0°F14.4°C 22% 2.3 mph N3.7 kmh N 3.5 mph5.6 kmh 29.76 in1007.8 mb - 0.00 in0.0 mm 0.00 in0.0 mm
02:20 PM 104.7°F40.4°C 55.6°F13.1°C 20% 1.2 mph NW1.9 kmh NW 3.5 mph5.6 kmh 29.76 in1007.8 mb - 0.00 in0.0 mm 0.00 in0.0 mm
02:15 PM 104.5°F40.3°C 58.0°F14.4°C 22% 1.2 mph W1.9 kmh W 2.3 mph3.7 kmh 29.77 in1008.1 mb - 0.00 in0.0 mm 0.00 in0.0 mm
02:10 PM 104.5°F40.3°C 56.7°F13.7°C 21% 1.2 mph ESE1.9 kmh ESE 1.2 mph1.9 kmh 29.77 in1008.1 mb - 0.00 in0.0 mm 0.00 in0.0 mm
02:05 PM 104.8°F40.4°C 57.0°F13.9°C 21% 2.3 mph N3.7 kmh N 3.5 mph5.6 kmh 29.77 in1008.1 mb - 0.00 in0.0 mm 0.00 in0.0 mm
02:00 PM 104.2°F40.1°C 56.5°F13.6°C 21% Calm Calm 1.2 mph1.9 kmh 29.77 in1008.1 mb - 0.00 in0.0 mm 0.00 in0.0 mm
01:55 PM 103.9°F39.9°C 57.6°F14.2°C 22% 1.2 mph S1.9 kmh S 2.3 mph3.7 kmh 29.77 in1008.1 mb - 0.00 in0.0 mm 0.00 in0.0 mm
11:45 AM 94.1°F34.5°C 57.0°F13.9°C 29% Calm Calm 1.2 mph1.9 kmh 29.80 in1009.1 mb - 0.00 in0.0 mm 0.00 in0.0 mm
11:40 AM 93.6°F34.2°C 57.5°F14.2°C 30% Calm Calm 1.2 mph1.9 kmh 29.81 in1009.5 mb - 0.00 in0.0 mm 0.00 in0.0 mm
11:35 AM 93.4°F34.1°C 57.3°F14.1°C 30% Calm Calm 1.2 mph1.9 kmh 29.81 in1009.5 mb - 0.00 in0.0 mm 0.00 in0.0 mm
11:30 AM 93.4°F34.1°C 56.4°F13.6°C 29% Calm Calm -- 29.81 in1009.5 mb - 0.00 in0.0 mm 0.00 in0.0 mm
11:25 AM 93.3°F34.1°C 56.3°F13.5°C 29% Calm Calm -- 29.81 in1009.5 mb - 0.00 in0.0 mm 0.00 in0.0 mm
11:20 AM 92.9°F33.8°C 56.0°F13.3°C 29% Calm Calm 1.2 mph1.9 kmh 29.81 in1009.5 mb - 0.00 in0.0 mm 0.00 in0.0 mm
11:15 AM 92.4°F33.6°C 55.5°F13.1°C 29% Calm Calm -- 29.81 in1009.5 mb - 0.00 in0.0 mm 0.00 in0.0 mm
11:10 AM 92.0°F33.3°C 57.0°F13.9°C 31% Calm Calm 1.2 mph1.9 kmh 29.81 in1009.5 mb - 0.00 in0.0 mm 0.00 in0.0 mm
11:05 AM 91.6°F33.1°C 55.8°F13.2°C 30% Calm Calm -- 29.81 in1009.5 mb - 0.00 in0.0 mm 0.00 in0.0 mm
11:00 AM 91.3°F32.9°C 55.5°F13.1°C 30% Calm Calm 1.2 mph1.9 kmh 29.81 in1009.5 mb - 0.00 in0.0 mm 0.00 in0.0 mm
10:55 AM 91.1°F32.8°C 55.3°F12.9°C 30% Calm Calm 1.2 mph1.9 kmh 29.81 in1009.5 mb - 0.00 in0.0 mm 0.00 in0.0 mm
10:50 AM 90.9°F32.7°C 55.2°F12.9°C 30% Calm Calm -- 29.81 in1009.5 mb - 0.00 in0.0 mm 0.00 in0.0 mm
10:45 AM 90.7°F32.6°C 55.0°F12.8°C 30% Calm Calm 1.2 mph1.9 kmh 29.81 in1009.5 mb - 0.00 in0.0 mm 0.00 in0.0 mm
10:40 AM 90.5°F32.5°C 53.9°F12.2°C 29% Calm Calm -- 29.82 in1009.8 mb - 0.00 in0.0 mm 0.00 in0.0 mm
10:35 AM 90.3°F32.4°C 54.7°F12.6°C 30% Calm Calm 1.2 mph1.9 kmh 29.82 in1009.8 mb - 0.00 in0.0 mm 0.00 in0.0 mm
10:30 AM 90.0°F32.2°C 52.5°F11.4°C 28% Calm Calm -- 29.82 in1009.8 mb - 0.00 in0.0 mm 0.00 in0.0 mm
10:25 AM 89.6°F32.0°C 52.2°F11.2°C 28% Calm Calm 1.2 mph1.9 kmh 29.82 in1009.8 mb - 0.00 in0.0 mm 0.00 in0.0 mm
10:20 AM 89.4°F31.9°C 51.0°F10.6°C 27% Calm Calm 1.2 mph1.9 kmh 29.81 in1009.5 mb - 0.00 in0.0 mm 0.00 in0.0 mm
10:15 AM 89.2°F31.8°C 50.8°F10.4°C 27% Calm Calm 2.3 mph3.7 kmh 29.81 in1009.5 mb - 0.00 in0.0 mm 0.00 in0.0 mm
10:10 AM 88.9°F31.6°C 50.6°F10.3°C 27% 1.2 mph SW1.9 kmh SW 3.5 mph5.6 kmh 29.81 in1009.5 mb - 0.00 in0.0 mm 0.00 in0.0 mm
10:05 AM 88.7°F31.5°C 51.4°F10.8°C 28% 1.2 mph S1.9 kmh S 1.2 mph1.9 kmh 29.81 in1009.5 mb - 0.00 in0.0 mm 0.00 in0.0 mm
10:00 AM 88.3°F31.3°C 51.1°F10.6°C 28% Calm Calm -- 29.81 in1009.5 mb - 0.00 in0.0 mm 0.00 in0.0 mm
09:55 AM 88.0°F31.1°C 50.8°F10.4°C 28% Calm Calm 1.2 mph1.9 kmh 29.81 in1009.5 mb - 0.00 in0.0 mm 0.00 in0.0 mm
09:50 AM 87.6°F30.9°C 51.4°F10.8°C 29% Calm Calm 1.2 mph1.9 kmh 29.81 in1009.5 mb - 0.00 in0.0 mm 0.00 in0.0 mm
09:45 AM 87.3°F30.7°C 52.1°F11.2°C 30% Calm Calm 1.2 mph1.9 kmh 29.82 in1009.8 mb - 0.00 in0.0 mm 0.00 in0.0 mm
09:40 AM 86.8°F30.4°C 51.6°F10.9°C 30% Calm Calm 1.2 mph1.9 kmh 29.82 in1009.8 mb - 0.00 in0.0 mm 0.00 in0.0 mm
09:35 AM 86.3°F30.2°C 53.0°F11.7°C 32% Calm Calm -- 29.82 in1009.8 mb - 0.00 in0.0 mm 0.00 in0.0 mm
09:30 AM 86.1°F30.1°C 53.6°F12.0°C 33% Calm Calm -- 29.82 in1009.8 mb - 0.00 in0.0 mm 0.00 in0.0 mm
09:25 AM 85.9°F29.9°C 53.5°F11.9°C 33% Calm Calm -- 29.82 in1009.8 mb - 0.00 in0.0 mm 0.00 in0.0 mm
09:20 AM 85.6°F29.8°C 54.0°F12.2°C 34% Calm Calm -- 29.82 in1009.8 mb - 0.00 in0.0 mm 0.00 in0.0 mm
09:15 AM 85.2°F29.6°C 53.7°F12.1°C 34% Calm Calm -- 29.82 in1009.8 mb - 0.00 in0.0 mm 0.00 in0.0 mm
09:10 AM 84.9°F29.4°C 54.2°F12.3°C 35% Calm Calm -- 29.82 in1009.8 mb - 0.00 in0.0 mm 0.00 in0.0 mm
09:05 AM 84.4°F29.1°C 55.3°F12.9°C 37% Calm Calm 1.2 mph1.9 kmh 29.82 in1009.8 mb - 0.00 in0.0 mm 0.00 in0.0 mm
09:00 AM 84.1°F28.9°C 55.7°F13.2°C 38% Calm Calm -- 29.82 in1009.8 mb - 0.00 in0.0 mm 0.00 in0.0 mm
08:55 AM 83.6°F28.7°C 55.3°F12.9°C 38% Calm Calm -- 29.82 in1009.8 mb - 0.00 in0.0 mm 0.00 in0.0 mm
08:50 AM 83.2°F28.4°C 56.4°F13.6°C 40% Calm Calm -- 29.82 in1009.8 mb - 0.00 in0.0 mm 0.00 in0.0 mm
08:45 AM 82.8°F28.2°C 56.7°F13.7°C 41% Calm Calm -- 29.82 in1009.8 mb - 0.00 in0.0 mm 0.00 in0.0 mm
08:40 AM 82.4°F28.0°C 56.3°F13.5°C 41% Calm Calm -- 29.82 in1009.8 mb - 0.00 in0.0 mm 0.00 in0.0 mm
08:35 AM 82.1°F27.8°C 56.8°F13.8°C 42% Calm Calm -- 29.82 in1009.8 mb - 0.00 in0.0 mm 0.00 in0.0 mm
08:30 AM 81.7°F27.6°C 55.7°F13.2°C 41% Calm Calm -- 29.82 in1009.8 mb - 0.00 in0.0 mm 0.00 in0.0 mm
08:25 AM 81.4°F27.4°C 56.1°F13.4°C 42% Calm Calm -- 29.82 in1009.8 mb - 0.00 in0.0 mm 0.00 in0.0 mm
08:20 AM 80.9°F27.2°C 55.7°F13.2°C 42% Calm Calm -- 29.82 in1009.8 mb - 0.00 in0.0 mm 0.00 in0.0 mm
08:15 AM 80.6°F27.0°C 55.3°F12.9°C 42% Calm Calm -- 29.82 in1009.8 mb - 0.00 in0.0 mm 0.00 in0.0 mm
08:10 AM 80.1°F26.7°C 56.9°F13.8°C 45% Calm Calm -- 29.82 in1009.8 mb - 0.00 in0.0 mm 0.00 in0.0 mm
08:05 AM 79.6°F26.4°C 55.7°F13.2°C 44% Calm Calm -- 29.82 in1009.8 mb - 0.00 in0.0 mm 0.00 in0.0 mm
08:00 AM 78.9°F26.1°C 57.0°F13.9°C 47% Calm Calm 1.2 mph1.9 kmh 29.82 in1009.8 mb - 0.00 in0.0 mm 0.00 in0.0 mm
07:55 AM 78.3°F25.7°C 56.4°F13.6°C 47% Calm Calm -- 29.82 in1009.8 mb - 0.00 in0.0 mm 0.00 in0.0 mm
07:50 AM 77.6°F25.3°C 56.4°F13.6°C 48% Calm Calm -- 29.82 in1009.8 mb - 0.00 in0.0 mm 0.00 in0.0 mm
07:45 AM 77.2°F25.1°C 57.1°F13.9°C 50% Calm Calm -- 29.82 in1009.8 mb - 0.00 in0.0 mm 0.00 in0.0 mm
07:40 AM 76.8°F24.9°C 57.3°F14.1°C 51% Calm Calm -- 29.82 in1009.8 mb - 0.00 in0.0 mm 0.00 in0.0 mm
07:35 AM 76.3°F24.6°C 57.4°F14.1°C 52% Calm Calm -- 29.81 in1009.5 mb - 0.00 in0.0 mm 0.00 in0.0 mm
07:30 AM 75.9°F24.4°C 58.1°F14.5°C 54% Calm Calm -- 29.81 in1009.5 mb - 0.00 in0.0 mm 0.00 in0.0 mm
07:25 AM 75.5°F24.2°C 58.2°F14.6°C 55% Calm Calm -- 29.81 in1009.5 mb - 0.00 in0.0 mm 0.00 in0.0 mm
07:20 AM 75.1°F23.9°C 57.9°F14.4°C 55% Calm Calm -- 29.81 in1009.5 mb - 0.00 in0.0 mm 0.00 in0.0 mm
07:15 AM 74.8°F23.8°C 58.0°F14.4°C 56% Calm Calm -- 29.81 in1009.5 mb - 0.00 in0.0 mm 0.00 in0.0 mm
07:10 AM 74.4°F23.6°C 58.7°F14.8°C 58% Calm Calm -- 29.81 in1009.5 mb - 0.00 in0.0 mm 0.00 in0.0 mm
07:05 AM 74.1°F23.4°C 58.4°F14.7°C 58% Calm Calm -- 29.81 in1009.5 mb - 0.00 in0.0 mm 0.00 in0.0 mm
07:00 AM 73.9°F23.3°C 59.1°F15.1°C 60% Calm Calm -- 29.81 in1009.5 mb - 0.00 in0.0 mm 0.00 in0.0 mm
06:55 AM 73.7°F23.2°C 59.4°F15.2°C 61% Calm Calm -- 29.81 in1009.5 mb - 0.00 in0.0 mm 0.00 in0.0 mm
06:50 AM 73.6°F23.1°C 59.8°F15.4°C 62% Calm Calm -- 29.81 in1009.5 mb - 0.00 in0.0 mm 0.00 in0.0 mm
06:45 AM 73.5°F23.1°C 60.1°F15.6°C 63% Calm Calm -- 29.81 in1009.5 mb - 0.00 in0.0 mm 0.00 in0.0 mm
06:40 AM 73.3°F22.9°C 58.1°F14.5°C 59% Calm Calm -- 29.81 in1009.5 mb - 0.00 in0.0 mm 0.00 in0.0 mm
06:35 AM 73.3°F22.9°C 59.9°F15.5°C 63% Calm Calm -- 29.81 in1009.5 mb - 0.00 in0.0 mm 0.00 in0.0 mm
06:30 AM 73.2°F22.9°C 58.5°F14.7°C 60% Calm Calm -- 29.80 in1009.1 mb - 0.00 in0.0 mm 0.00 in0.0 mm
06:25 AM 73.3°F22.9°C 58.6°F14.8°C 60% Calm Calm -- 29.80 in1009.1 mb - 0.00 in0.0 mm 0.00 in0.0 mm
06:20 AM 73.4°F23.0°C 59.6°F15.3°C 62% Calm Calm -- 29.80 in1009.1 mb - 0.00 in0.0 mm 0.00 in0.0 mm
06:15 AM 73.6°F23.1°C 59.8°F15.4°C 62% Calm Calm -- 29.80 in1009.1 mb - 0.00 in0.0 mm 0.00 in0.0 mm
06:10 AM 73.7°F23.2°C 59.9°F15.5°C 62% Calm Calm -- 29.80 in1009.1 mb - 0.00 in0.0 mm 0.00 in0.0 mm
06:05 AM 73.8°F23.2°C 59.1°F15.1°C 60% Calm Calm -- 29.80 in1009.1 mb - 0.00 in0.0 mm 0.00 in0.0 mm
06:00 AM 73.9°F23.3°C 58.7°F14.8°C 59% Calm Calm -- 29.79 in1008.8 mb - 0.00 in0.0 mm 0.00 in0.0 mm
05:55 AM 74.0°F23.3°C 58.3°F14.6°C 58% Calm Calm -- 29.79 in1008.8 mb - 0.00 in0.0 mm 0.00 in0.0 mm
05:50 AM 74.1°F23.4°C 58.9°F14.9°C 59% Calm Calm -- 29.79 in1008.8 mb - 0.00 in0.0 mm 0.00 in0.0 mm
05:45 AM 74.1°F23.4°C 58.9°F14.9°C 59% Calm Calm -- 29.79 in1008.8 mb - 0.00 in0.0 mm 0.00 in0.0 mm
05:40 AM 74.0°F23.3°C 58.8°F14.9°C 59% Calm Calm -- 29.79 in1008.8 mb - 0.00 in0.0 mm 0.00 in0.0 mm
05:35 AM 73.9°F23.3°C 59.1°F15.1°C 60% Calm Calm -- 29.79 in1008.8 mb - 0.00 in0.0 mm 0.00 in0.0 mm
05:30 AM 73.9°F23.3°C 59.1°F15.1°C 60% Calm Calm -- 29.79 in1008.8 mb - 0.00 in0.0 mm 0.00 in0.0 mm
05:25 AM 73.9°F23.3°C 59.6°F15.3°C 61% Calm Calm -- 29.79 in1008.8 mb - 0.00 in0.0 mm 0.00 in0.0 mm
05:20 AM 74.0°F23.3°C 59.2°F15.1°C 60% Calm Calm -- 29.78 in1008.5 mb - 0.00 in0.0 mm 0.00 in0.0 mm
05:15 AM 74.0°F23.3°C 59.7°F15.4°C 61% Calm Calm -- 29.78 in1008.5 mb - 0.00 in0.0 mm 0.00 in0.0 mm
05:10 AM 74.1°F23.4°C 59.8°F15.4°C 61% Calm Calm -- 29.78 in1008.5 mb - 0.00 in0.0 mm 0.00 in0.0 mm
05:05 AM 74.2°F23.4°C 59.9°F15.5°C 61% Calm Calm -- 29.78 in1008.5 mb - 0.00 in0.0 mm 0.00 in0.0 mm
05:00 AM 74.3°F23.5°C 60.4°F15.8°C 62% Calm Calm -- 29.78 in1008.5 mb - 0.00 in0.0 mm 0.00 in0.0 mm
04:55 AM 74.4°F23.6°C 59.1°F15.1°C 59% Calm Calm -- 29.78 in1008.5 mb - 0.00 in0.0 mm 0.00 in0.0 mm
04:50 AM 74.6°F23.7°C 60.3°F15.7°C 61% Calm Calm -- 29.78 in1008.5 mb - 0.00 in0.0 mm 0.00 in0.0 mm
04:45 AM 74.8°F23.8°C 60.4°F15.8°C 61% Calm Calm -- 29.78 in1008.5 mb - 0.00 in0.0 mm 0.00 in0.0 mm
04:40 AM 74.9°F23.8°C 61.0°F16.1°C 62% Calm Calm -- 29.78 in1008.5 mb - 0.00 in0.0 mm 0.00 in0.0 mm
04:35 AM 74.9°F23.8°C 60.6°F15.9°C 61% Calm Calm -- 29.78 in1008.5 mb - 0.00 in0.0 mm 0.00 in0.0 mm
04:30 AM 75.0°F23.9°C 60.2°F15.7°C 60% Calm Calm -- 29.78 in1008.5 mb - 0.00 in0.0 mm 0.00 in0.0 mm
04:25 AM 75.0°F23.9°C 60.7°F15.9°C 61% Calm Calm -- 29.78 in1008.5 mb - 0.00 in0.0 mm 0.00 in0.0 mm
04:20 AM 75.2°F24.0°C 60.8°F16.0°C 61% Calm Calm -- 29.78 in1008.5 mb - 0.00 in0.0 mm 0.00 in0.0 mm
04:15 AM 75.5°F24.2°C 62.5°F16.9°C 64% Calm Calm -- 29.78 in1008.5 mb - 0.00 in0.0 mm 0.00 in0.0 mm
04:10 AM 75.6°F24.2°C 62.1°F16.7°C 63% Calm Calm -- 29.78 in1008.5 mb - 0.00 in0.0 mm 0.00 in0.0 mm
04:05 AM 75.6°F24.2°C 59.8°F15.4°C 58% Calm Calm -- 29.78 in1008.5 mb - 0.00 in0.0 mm 0.00 in0.0 mm
04:00 AM 75.8°F24.3°C 60.0°F15.6°C 58% Calm Calm -- 29.78 in1008.5 mb - 0.00 in0.0 mm 0.00 in0.0 mm
03:55 AM 76.1°F24.5°C 60.7°F15.9°C 59% Calm Calm -- 29.78 in1008.5 mb - 0.00 in0.0 mm 0.00 in0.0 mm
03:50 AM 76.1°F24.5°C 60.3°F15.7°C 58% Calm Calm -- 29.78 in1008.5 mb - 0.00 in0.0 mm 0.00 in0.0 mm
03:45 AM 76.3°F24.6°C 59.9°F15.5°C 57% Calm Calm -- 29.78 in1008.5 mb - 0.00 in0.0 mm 0.00 in0.0 mm
03:40 AM 76.6°F24.8°C 60.7°F15.9°C 58% Calm Calm -- 29.78 in1008.5 mb - 0.00 in0.0 mm 0.00 in0.0 mm
03:35 AM 76.8°F24.9°C 60.9°F16.1°C 58% Calm Calm -- 29.77 in1008.1 mb - 0.00 in0.0 mm 0.00 in0.0 mm
03:30 AM 76.9°F24.9°C 60.0°F15.6°C 56% Calm Calm -- 29.77 in1008.1 mb - 0.00 in0.0 mm 0.00 in0.0 mm
03:25 AM 77.0°F25.0°C 60.1°F15.6°C 56% Calm Calm -- 29.77 in1008.1 mb - 0.00 in0.0 mm 0.00 in0.0 mm
03:20 AM 77.1°F25.1°C 60.7°F15.9°C 57% Calm Calm -- 29.77 in1008.1 mb - 0.00 in0.0 mm 0.00 in0.0 mm
03:15 AM 77.0°F25.0°C 59.6°F15.3°C 55% Calm Calm -- 29.77 in1008.1 mb - 0.00 in0.0 mm 0.00 in0.0 mm
03:10 AM 76.8°F24.9°C 59.4°F15.2°C 55% Calm Calm -- 29.77 in1008.1 mb - 0.00 in0.0 mm 0.00 in0.0 mm
03:05 AM 76.8°F24.9°C 60.4°F15.8°C 57% Calm Calm -- 29.77 in1008.1 mb - 0.00 in0.0 mm 0.00 in0.0 mm
03:00 AM 76.8°F24.9°C 60.4°F15.8°C 57% Calm Calm -- 29.77 in1008.1 mb - 0.00 in0.0 mm 0.00 in0.0 mm
02:55 AM 76.9°F24.9°C 61.0°F16.1°C 58% Calm Calm -- 29.77 in1008.1 mb - 0.00 in0.0 mm 0.00 in0.0 mm
02:50 AM 77.0°F25.0°C 61.1°F16.2°C 58% Calm Calm -- 29.77 in1008.1 mb - 0.00 in0.0 mm 0.00 in0.0 mm
02:45 AM 77.2°F25.1°C 61.3°F16.3°C 58% Calm Calm -- 29.77 in1008.1 mb - 0.00 in0.0 mm 0.00 in0.0 mm
02:40 AM 77.3°F25.2°C 61.4°F16.3°C 58% Calm Calm -- 29.77 in1008.1 mb - 0.00 in0.0 mm 0.00 in0.0 mm
02:35 AM 77.4°F25.2°C 61.0°F16.1°C 57% Calm Calm -- 29.77 in1008.1 mb - 0.00 in0.0 mm 0.00 in0.0 mm
02:30 AM 77.6°F25.3°C 61.1°F16.2°C 57% Calm Calm -- 29.77 in1008.1 mb - 0.00 in0.0 mm 0.00 in0.0 mm
02:25 AM 77.7°F25.4°C 61.2°F16.2°C 57% Calm Calm -- 29.77 in1008.1 mb - 0.00 in0.0 mm 0.00 in0.0 mm
02:20 AM 77.8°F25.4°C 61.8°F16.6°C 58% Calm Calm -- 29.77 in1008.1 mb - 0.00 in0.0 mm 0.00 in0.0 mm
02:15 AM 78.0°F25.6°C 62.0°F16.7°C 58% Calm Calm -- 29.77 in1008.1 mb - 0.00 in0.0 mm 0.00 in0.0 mm
02:10 AM 78.2°F25.7°C 62.7°F17.1°C 59% Calm Calm -- 29.77 in1008.1 mb - 0.00 in0.0 mm 0.00 in0.0 mm
02:05 AM 78.4°F25.8°C 62.9°F17.2°C 59% Calm Calm -- 29.77 in1008.1 mb - 0.00 in0.0 mm 0.00 in0.0 mm
02:00 AM 78.6°F25.9°C 62.1°F16.7°C 57% Calm Calm -- 29.77 in1008.1 mb - 0.00 in0.0 mm 0.00 in0.0 mm
01:55 AM 78.9°F26.1°C 63.3°F17.4°C 59% Calm Calm -- 29.77 in1008.1 mb - 0.00 in0.0 mm 0.00 in0.0 mm
01:50 AM 79.1°F26.2°C 63.1°F17.3°C 58% Calm Calm -- 29.77 in1008.1 mb - 0.00 in0.0 mm 0.00 in0.0 mm
01:45 AM 79.4°F26.3°C 63.8°F17.7°C 59% Calm Calm -- 29.77 in1008.1 mb - 0.00 in0.0 mm 0.00 in0.0 mm
01:40 AM 79.6°F26.4°C 63.0°F17.2°C 57% Calm Calm -- 29.77 in1008.1 mb - 0.00 in0.0 mm 0.00 in0.0 mm
01:35 AM 79.8°F26.6°C 63.2°F17.3°C 57% Calm Calm -- 29.77 in1008.1 mb - 0.00 in0.0 mm 0.00 in0.0 mm
01:30 AM 79.9°F26.6°C 63.3°F17.4°C 57% Calm Calm -- 29.77 in1008.1 mb - 0.00 in0.0 mm 0.00 in0.0 mm
01:25 AM 80.0°F26.7°C 62.4°F16.9°C 55% Calm Calm -- 29.77 in1008.1 mb - 0.00 in0.0 mm 0.00 in0.0 mm
01:20 AM 80.1°F26.7°C 63.0°F17.2°C 56% Calm Calm -- 29.77 in1008.1 mb - 0.00 in0.0 mm 0.00 in0.0 mm
01:15 AM 80.4°F26.9°C 63.7°F17.6°C 57% Calm Calm -- 29.77 in1008.1 mb - 0.00 in0.0 mm 0.00 in0.0 mm
01:10 AM 80.5°F26.9°C 62.3°F16.8°C 54% Calm Calm -- 29.77 in1008.1 mb - 0.00 in0.0 mm 0.00 in0.0 mm
01:05 AM 80.6°F27.0°C 61.9°F16.6°C 53% Calm Calm -- 29.77 in1008.1 mb - 0.00 in0.0 mm 0.00 in0.0 mm
01:00 AM 80.8°F27.1°C 63.6°F17.6°C 56% Calm Calm -- 29.77 in1008.1 mb - 0.00 in0.0 mm 0.00 in0.0 mm
12:55 AM 81.1°F27.3°C 63.9°F17.7°C 56% Calm Calm -- 29.77 in1008.1 mb - 0.00 in0.0 mm 0.00 in0.0 mm
12:50 AM 81.3°F27.4°C 63.1°F17.3°C 54% Calm Calm -- 29.77 in1008.1 mb - 0.00 in0.0 mm 0.00 in0.0 mm
12:45 AM 81.5°F27.5°C 63.3°F17.4°C 54% Calm Calm -- 29.77 in1008.1 mb - 0.00 in0.0 mm 0.00 in0.0 mm
12:40 AM 81.8°F27.7°C 64.6°F18.1°C 56% Calm Calm -- 29.77 in1008.1 mb - 0.00 in0.0 mm 0.00 in0.0 mm
12:35 AM 81.8°F27.7°C 63.6°F17.6°C 54% Calm Calm -- 29.77 in1008.1 mb - 0.00 in0.0 mm 0.00 in0.0 mm
12:30 AM 82.1°F27.8°C 64.3°F17.9°C 55% Calm Calm -- 29.77 in1008.1 mb - 0.00 in0.0 mm 0.00 in0.0 mm
12:25 AM 82.5°F28.1°C 65.7°F18.7°C 57% Calm Calm -- 29.77 in1008.1 mb - 0.00 in0.0 mm 0.00 in0.0 mm
12:20 AM 82.8°F28.2°C 66.5°F19.2°C 58% Calm Calm -- 29.77 in1008.1 mb - 0.00 in0.0 mm 0.00 in0.0 mm
12:15 AM 82.9°F28.3°C 65.6°F18.7°C 56% Calm Calm -- 29.77 in1008.1 mb - 0.00 in0.0 mm 0.00 in0.0 mm
12:10 AM 83.0°F28.3°C 64.1°F17.8°C 53% Calm Calm -- 29.77 in1008.1 mb - 0.00 in0.0 mm 0.00 in0.0 mm
12:05 AM 83.3°F28.5°C 65.5°F18.6°C 55% Calm Calm -- 29.77 in1008.1 mb - 0.00 in0.0 mm 0.00 in0.0 mm
12:00 AM 83.4°F28.6°C 65.0°F18.3°C 54% Calm Calm -- 29.77 in1008.1 mb - 0.00 in0.0 mm 0.00 in0.0 mm